Time;durP1;ratioP1;P1;durP2;ratioP2;P2;SDS_P1;SDS_P2;PMS_P1;PMS_P2;Temp;Humidity;BMP_temperature;BMP_pressure;BME280_temperature;BME280_humidity;BME280_pressure;Samples;Min_cycle;Max_cycle;Signal;HPM_P1;HPM_P2
2022/09/23 00:00:30;;;;;;;;;;;22.20;43.30;21.00;101483.00;;;;5102885;27;20365;-68
2022/09/23 00:03:16;;;;;;;;;;;22.20;43.30;21.00;101487.00;;;;5099456;27;19931;-68
2022/09/23 00:06:07;;;;;;;;;;;22.20;43.30;21.00;101481.00;;;;5102109;27;19911;-68
2022/09/23 00:08:53;;;;;;;;;;;22.20;43.30;21.00;101483.00;;;;5089330;28;20307;-68
2022/09/23 00:11:39;;;;;;;;;;;22.20;43.30;21.00;101480.00;;;;5097419;28;19912;-68
2022/09/23 00:14:25;;;;;;;;;;;22.20;43.30;21.00;101478.00;;;;5099794;28;19916;-68
2022/09/23 00:17:12;;;;;;;;;;;22.20;43.30;21.00;101481.00;;;;5093218;28;19912;-68
2022/09/23 00:19:59;;;;;;;;;;;22.20;43.30;21.00;101481.00;;;;5098004;28;19912;-68
2022/09/23 00:22:45;;;;;;;;;;;22.20;43.30;21.00;101474.00;;;;5099133;27;19912;-69
2022/09/23 00:25:31;;;;;;;;;;;22.20;43.30;21.00;101470.00;;;;5097466;27;19943;-69
2022/09/23 00:28:17;;;;;;;;;;;22.10;43.30;21.00;101470.00;;;;5098061;27;19938;-69
2022/09/23 00:31:07;;;;;;;;;;;22.20;43.30;21.00;101461.00;;;;5103942;27;19916;-68
2022/09/23 00:33:55;;;;;;;;;;;22.20;43.30;21.00;101461.00;;;;5100497;27;20265;-68
2022/09/23 00:36:41;;;;;;;;;;;22.20;43.30;21.00;101458.00;;;;5098000;27;19911;-68
2022/09/23 00:39:27;;;;;;;;;;;22.20;43.30;21.00;101463.00;;;;5068010;28;20484;-69
2022/09/23 00:42:15;;;;;;;;;;;22.20;43.30;21.00;101458.00;;;;5096706;28;20010;-68
2022/09/23 00:45:01;;;;;;;;;;;22.20;43.30;21.00;101455.00;;;;5093017;28;19911;-68
2022/09/23 00:47:54;;;;;;;;;;;22.20;43.30;20.90;101459.00;;;;5100056;28;20064;-68
2022/09/23 00:50:40;;;;;;;;;;;22.20;43.30;21.00;101455.00;;;;5082737;27;20384;-69
2022/09/23 00:53:27;;;;;;;;;;;22.20;43.30;20.90;101447.00;;;;5110327;27;19957;-68
2022/09/23 00:56:13;;;;;;;;;;;22.20;43.30;20.90;101450.00;;;;5094183;27;19923;-69
2022/09/23 00:58:59;;;;;;;;;;;22.20;43.30;20.90;101447.00;;;;5091268;27;19916;-68
2022/09/23 01:01:45;;;;;;;;;;;22.20;43.30;20.90;101447.00;;;;5089631;27;19970;-69
2022/09/23 01:04:31;;;;;;;;;;;22.20;43.30;20.90;101452.00;;;;5082775;27;19918;-69
2022/09/23 01:07:17;;;;;;;;;;;22.20;43.30;21.00;101443.00;;;;5078887;28;19927;-69
2022/09/23 01:10:04;;;;;;;;;;;22.20;43.30;21.00;101440.00;;;;5097285;27;19927;-68
2022/09/23 01:13:11;;;;;;;;;;;22.20;43.30;20.90;101433.00;;;;5110725;27;20433;-68
2022/09/23 01:16:19;;;;;;;;;;;22.20;43.20;20.90;101445.00;;;;5106616;27;19920;-69
2022/09/23 01:19:12;;;;;;;;;;;22.20;43.30;20.90;101440.00;;;;5114156;27;19950;-68
2022/09/23 01:22:16;;;;;;;;;;;22.20;43.30;20.90;101439.00;;;;5097472;27;19911;-68
2022/09/23 01:25:23;;;;;;;;;;;22.20;43.30;20.90;101442.00;;;;5084466;28;19919;-68
2022/09/23 01:28:27;;;;;;;;;;;22.10;43.20;20.90;101432.00;;;;5087569;28;19919;-68
2022/09/23 01:31:46;;;;;;;;;;;22.20;43.30;20.90;101427.00;;;;5100150;27;19927;-68
2022/09/23 01:34:41;;;;;;;;;;;22.10;43.90;20.90;101427.00;;;;5079419;27;19912;-68
2022/09/23 01:37:35;;;;;;;;;;;22.20;43.30;20.90;101426.00;;;;5109310;27;19920;-69
2022/09/23 01:40:37;;;;;;;;;;;22.10;43.30;20.90;101421.00;;;;5075478;28;19919;-68
2022/09/23 01:43:32;;;;;;;;;;;22.10;43.20;20.90;101418.00;;;;5095980;28;19919;-68
2022/09/23 01:46:21;;;;;;;;;;;22.20;44.00;20.90;101423.00;;;;5097722;28;19935;-68
2022/09/23 01:49:17;;;;;;;;;;;22.20;43.30;20.90;101424.00;;;;5080088;28;19963;-68
2022/09/23 01:52:10;;;;;;;;;;;22.20;43.30;20.90;101418.00;;;;5080250;28;19951;-68
2022/09/23 01:55:21;;;;;;;;;;;22.20;43.30;20.90;101412.00;;;;5085647;28;20378;-69
2022/09/23 01:58:10;;;;;;;;;;;22.20;43.30;20.90;101413.00;;;;5086262;28;19916;-69
2022/09/23 02:00:59;;;;;;;;;;;22.10;43.20;20.90;101413.00;;;;5095383;28;20143;-68
2022/09/23 02:03:54;;;;;;;;;;;22.20;43.20;20.90;101412.00;;;;5078988;28;20274;-68
2022/09/23 02:06:42;;;;;;;;;;;22.20;43.30;20.90;101407.00;;;;5084401;28;19972;-68
2022/09/23 02:09:32;;;;;;;;;;;22.20;43.20;20.90;101405.00;;;;5088637;28;19998;-68
2022/09/23 02:12:19;;;;;;;;;;;22.20;43.20;21.00;101407.00;;;;5094522;28;20018;-68
2022/09/23 02:15:07;;;;;;;;;;;22.20;43.20;20.90;101403.00;;;;5104578;27;19916;-68
2022/09/23 02:17:57;;;;;;;;;;;22.20;43.20;20.90;101404.00;;;;5079796;28;19912;-69
2022/09/23 02:20:43;;;;;;;;;;;22.20;43.20;20.90;101402.00;;;;5099299;27;19969;-69
2022/09/23 02:23:35;;;;;;;;;;;22.20;43.90;21.00;101395.00;;;;5096951;28;19912;-68
2022/09/23 02:26:26;;;;;;;;;;;22.20;43.20;20.90;101398.00;;;;5097283;28;20380;-68
2022/09/23 02:29:20;;;;;;;;;;;22.20;43.20;20.90;101389.00;;;;5093122;28;20020;-68
2022/09/23 02:32:11;;;;;;;;;;;22.20;43.20;20.90;101389.00;;;;5099063;28;19969;-69
2022/09/23 02:35:22;;;;;;;;;;;22.20;43.10;20.90;101386.00;;;;5100439;28;20365;-68
2022/09/23 02:38:32;;;;;;;;;;;22.20;43.10;20.90;101382.00;;;;5091932;28;19938;-68
2022/09/23 02:41:43;;;;;;;;;;;22.20;43.10;20.90;101375.00;;;;5081935;28;19919;-68
2022/09/23 02:44:31;;;;;;;;;;;22.20;43.20;20.90;101379.00;;;;5100790;28;20461;-68
2022/09/23 02:47:18;;;;;;;;;;;22.20;43.90;20.90;101385.00;;;;5080458;28;19916;-68
2022/09/23 02:50:05;;;;;;;;;;;22.10;43.10;20.90;101363.00;;;;5087982;28;19920;-68
2022/09/23 02:52:51;;;;;;;;;;;22.20;43.20;20.90;101366.00;;;;5093316;28;20324;-68
2022/09/23 02:55:37;;;;;;;;;;;22.10;43.20;20.90;101373.00;;;;5096186;28;20357;-68
2022/09/23 02:58:23;;;;;;;;;;;22.10;43.10;20.90;101363.00;;;;5076667;28;20292;-68
2022/09/23 03:01:25;;;;;;;;;;;22.20;43.20;20.90;101366.00;;;;5097295;28;20384;-68
2022/09/23 03:04:32;;;;;;;;;;;22.20;43.10;20.90;101366.00;;;;5094940;28;19911;-68
2022/09/23 03:07:22;;;;;;;;;;;22.20;43.10;20.90;101359.00;;;;5096427;28;19911;-68
2022/09/23 03:10:08;;;;;;;;;;;22.10;43.10;20.90;101359.00;;;;5097356;28;19920;-68
2022/09/23 03:13:13;;;;;;;;;;;22.20;43.20;20.90;101347.00;;;;5100319;28;19912;-68
2022/09/23 03:16:15;;;;;;;;;;;22.10;43.10;20.90;101350.00;;;;5094671;28;19964;-68
2022/09/23 03:19:11;;;;;;;;;;;22.10;43.10;20.90;101349.00;;;;5098760;28;19954;-68
2022/09/23 03:22:05;;;;;;;;;;;22.10;43.10;20.90;101343.00;;;;5098117;28;19919;-68
2022/09/23 03:24:50;;;;;;;;;;;22.20;43.10;20.90;101334.00;;;;5097947;28;19965;-68
2022/09/23 03:27:36;;;;;;;;;;;22.10;43.10;20.90;101336.00;;;;5099218;28;19923;-68
2022/09/23 03:30:23;;;;;;;;;;;22.10;43.10;20.90;101338.00;;;;5095505;27;20312;-69
2022/09/23 03:33:11;;;;;;;;;;;22.10;43.10;20.90;101335.00;;;;5114265;27;20350;-68
2022/09/23 03:39:07;;;;;;;;;;;22.10;43.10;20.90;101320.00;;;;5107794;27;19919;-68
2022/09/23 03:41:54;;;;;;;;;;;22.10;43.10;20.90;101326.00;;;;5089085;28;19912;-68
2022/09/23 03:44:44;;;;;;;;;;;22.10;43.10;20.90;101328.00;;;;5080719;28;19923;-68
2022/09/23 03:47:30;;;;;;;;;;;22.20;43.10;20.90;101332.00;;;;5112110;27;19911;-68
2022/09/23 03:50:16;;;;;;;;;;;22.10;43.10;20.90;101334.00;;;;5102163;27;19919;-68
2022/09/23 03:53:02;;;;;;;;;;;22.10;43.10;20.90;101328.00;;;;5103663;27;19965;-68
2022/09/23 03:55:48;;;;;;;;;;;22.10;43.10;20.90;101331.00;;;;5098699;27;19923;-68
2022/09/23 03:58:34;;;;;;;;;;;22.20;43.10;20.90;101324.00;;;;5097853;27;19916;-68
2022/09/23 04:01:20;;;;;;;;;;;22.10;43.10;20.90;101325.00;;;;5105154;27;19916;-68
2022/09/23 04:04:07;;;;;;;;;;;22.10;43.10;20.90;101314.00;;;;5107860;27;19915;-68
2022/09/23 04:06:54;;;;;;;;;;;22.10;43.10;20.90;101319.00;;;;5103184;27;20403;-69
2022/09/23 04:09:40;;;;;;;;;;;22.10;43.10;20.90;101313.00;;;;5102791;27;20006;-68
2022/09/23 04:12:26;;;;;;;;;;;22.20;43.10;20.90;101312.00;;;;5099253;27;19915;-69
2022/09/23 04:15:12;;;;;;;;;;;22.10;43.10;20.90;101309.00;;;;5104280;27;20277;-68
2022/09/23 04:17:58;;;;;;;;;;;22.10;43.10;20.90;101312.00;;;;5093425;27;19916;-68
2022/09/23 04:20:44;;;;;;;;;;;22.10;43.10;20.90;101315.00;;;;5105320;27;20200;-68
2022/09/23 04:23:30;;;;;;;;;;;22.10;43.10;20.90;101306.00;;;;5105972;27;20260;-68
2022/09/23 04:26:17;;;;;;;;;;;22.10;43.10;20.90;101310.00;;;;5101585;28;19955;-68
2022/09/23 04:29:04;;;;;;;;;;;22.10;43.10;20.90;101307.00;;;;5101892;28;19912;-68
2022/09/23 04:31:50;;;;;;;;;;;22.10;43.10;20.90;101306.00;;;;5101766;27;19915;-68
2022/09/23 04:34:36;;;;;;;;;;;22.10;43.10;20.90;101309.00;;;;5101673;27;19912;-68
2022/09/23 04:37:22;;;;;;;;;;;22.10;43.10;20.90;101302.00;;;;5104745;27;19924;-68
2022/09/23 04:40:08;;;;;;;;;;;22.10;43.10;20.90;101305.00;;;;5098280;27;19916;-68
2022/09/23 04:42:54;;;;;;;;;;;22.10;43.10;20.90;101295.00;;;;5100009;28;19918;-68
2022/09/23 04:45:44;;;;;;;;;;;22.00;43.00;20.90;101288.00;;;;5097389;27;19912;-68
2022/09/23 04:48:30;;;;;;;;;;;22.10;43.10;20.90;101294.00;;;;5092818;28;19977;-68
2022/09/23 04:51:18;;;;;;;;;;;22.10;43.10;20.90;101286.00;;;;5095076;28;19923;-68
2022/09/23 04:54:04;;;;;;;;;;;22.10;43.10;20.80;101287.00;;;;5105774;27;19915;-68
2022/09/23 04:56:51;;;;;;;;;;;22.10;43.10;20.80;101281.00;;;;5102804;28;19919;-68
2022/09/23 04:59:37;;;;;;;;;;;22.10;43.10;20.80;101279.00;;;;5106366;27;19924;-68
2022/09/23 05:02:24;;;;;;;;;;;22.10;43.10;20.80;101284.00;;;;5089182;28;20254;-68
2022/09/23 05:05:10;;;;;;;;;;;22.10;43.10;20.80;101280.00;;;;5100094;28;20325;-68
2022/09/23 05:07:56;;;;;;;;;;;22.00;43.00;20.80;101279.00;;;;5100944;28;19919;-68
2022/09/23 05:10:42;;;;;;;;;;;22.10;43.10;20.80;101285.00;;;;5080906;27;19923;-68
2022/09/23 05:13:28;;;;;;;;;;;22.00;43.00;20.80;101276.00;;;;5103612;27;19957;-68
2022/09/23 05:16:15;;;;;;;;;;;22.10;43.10;20.80;101280.00;;;;5103700;27;19922;-68
2022/09/23 05:19:02;;;;;;;;;;;22.00;43.00;20.80;101276.00;;;;5097173;28;19986;-68
2022/09/23 05:21:48;;;;;;;;;;;22.00;43.00;20.80;101275.00;;;;5097418;27;19962;-68
2022/09/23 05:24:34;;;;;;;;;;;22.00;43.00;20.80;101278.00;;;;5107426;27;19927;-68
2022/09/23 05:27:20;;;;;;;;;;;22.10;43.10;20.80;101275.00;;;;5108488;27;19986;-70
2022/09/23 05:30:06;;;;;;;;;;;22.00;43.00;20.80;101284.00;;;;5098894;27;19960;-69
2022/09/23 05:32:53;;;;;;;;;;;22.00;43.00;20.80;101281.00;;;;5098530;28;19957;-70
2022/09/23 05:35:38;;;;;;;;;;;22.00;43.00;20.80;101278.00;;;;5095093;27;20198;-70
2022/09/23 05:38:25;;;;;;;;;;;22.00;43.00;20.80;101285.00;;;;5095401;27;19915;-70
2022/09/23 05:41:12;;;;;;;;;;;22.00;43.00;20.80;101295.00;;;;5101551;27;19918;-70
2022/09/23 05:43:58;;;;;;;;;;;22.00;43.00;20.80;101292.00;;;;5102535;27;19916;-70
2022/09/23 05:46:44;;;;;;;;;;;22.00;43.00;20.80;101291.00;;;;5099708;27;20341;-70
2022/09/23 05:49:30;;;;;;;;;;;22.00;43.00;20.80;101300.00;;;;5095834;27;19919;-70
2022/09/23 05:52:16;;;;;;;;;;;22.00;43.00;20.80;101302.00;;;;5092687;27;19923;-70
2022/09/23 05:55:02;;;;;;;;;;;22.00;43.00;20.80;101299.00;;;;5096122;27;19918;-70
2022/09/23 05:57:48;;;;;;;;;;;22.00;43.00;20.80;101302.00;;;;5097265;27;19969;-70
2022/09/23 06:00:34;;;;;;;;;;;22.00;43.00;20.80;101311.00;;;;5102335;27;19912;-69
2022/09/23 06:03:20;;;;;;;;;;;22.00;43.00;20.80;101302.00;;;;5094333;27;20272;-68
2022/09/23 06:06:06;;;;;;;;;;;22.00;43.00;20.70;101304.00;;;;5100399;27;20257;-68
2022/09/23 06:08:52;;;;;;;;;;;22.00;43.00;20.70;101301.00;;;;5100040;27;20049;-68
2022/09/23 06:11:38;;;;;;;;;;;22.00;43.00;20.70;101301.00;;;;5095527;27;19912;-68
2022/09/23 06:14:24;;;;;;;;;;;22.00;43.00;20.70;101295.00;;;;5070145;28;19931;-68
2022/09/23 06:17:10;;;;;;;;;;;22.00;43.00;20.70;101303.00;;;;5093780;27;20419;-68
2022/09/23 06:19:56;;;;;;;;;;;22.00;43.00;20.80;101302.00;;;;5107224;27;20785;-68
2022/09/23 06:22:42;;;;;;;;;;;22.00;43.00;20.70;101294.00;;;;5097588;27;20002;-68
2022/09/23 06:25:31;;;;;;;;;;;22.00;43.00;20.70;101297.00;;;;5099663;27;19920;-68
2022/09/23 06:28:18;;;;;;;;;;;22.00;43.00;20.70;101296.00;;;;5096893;27;19912;-69
2022/09/23 06:31:10;;;;;;;;;;;21.90;43.00;20.70;101303.00;;;;5093404;27;20010;-68
2022/09/23 06:33:56;;;;;;;;;;;22.00;43.00;20.70;101304.00;;;;5082465;27;20281;-68
2022/09/23 06:36:42;;;;;;;;;;;22.00;43.00;20.70;101295.00;;;;5094919;27;20349;-68
2022/09/23 06:39:28;;;;;;;;;;;22.00;43.00;20.70;101297.00;;;;5099592;27;20006;-68
2022/09/23 06:42:15;;;;;;;;;;;22.00;43.00;20.70;101293.00;;;;5103906;27;19918;-68
2022/09/23 06:45:01;;;;;;;;;;;22.00;43.00;20.70;101293.00;;;;5095660;28;20151;-68
2022/09/23 06:47:53;;;;;;;;;;;22.00;43.00;20.70;101289.00;;;;5110077;28;19973;-68
2022/09/23 06:50:39;;;;;;;;;;;22.00;43.00;20.70;101288.00;;;;5099281;28;19919;-68
2022/09/23 06:53:25;;;;;;;;;;;22.00;43.00;20.70;101291.00;;;;5098113;28;20281;-68
2022/09/23 06:56:11;;;;;;;;;;;22.00;43.00;20.70;101294.00;;;;5105688;28;19912;-68
2022/09/23 06:58:58;;;;;;;;;;;22.00;43.00;20.80;101293.00;;;;5092594;28;19920;-68
2022/09/23 07:01:46;;;;;;;;;;;22.00;42.90;20.80;101291.00;;;;5106742;28;19912;-68
2022/09/23 07:04:32;;;;;;;;;;;22.00;43.00;20.80;101286.00;;;;5102803;28;19927;-68
2022/09/23 07:07:18;;;;;;;;;;;22.00;42.90;20.80;101298.00;;;;5104773;28;19912;-68
2022/09/23 07:10:04;;;;;;;;;;;22.00;43.00;20.80;101293.00;;;;5099096;28;20281;-68
2022/09/23 07:12:50;;;;;;;;;;;22.00;43.00;20.80;101290.00;;;;5103926;28;19918;-68
2022/09/23 07:15:36;;;;;;;;;;;22.00;42.90;20.80;101286.00;;;;5100385;28;19912;-68
2022/09/23 07:18:23;;;;;;;;;;;22.00;42.90;20.80;101292.00;;;;5096973;28;20002;-68
2022/09/23 07:21:13;;;;;;;;;;;22.00;42.90;20.80;101292.00;;;;5104358;28;19922;-69
2022/09/23 07:24:00;;;;;;;;;;;22.10;43.00;20.80;101291.00;;;;5101241;28;20056;-68
2022/09/23 07:26:46;;;;;;;;;;;22.00;42.90;20.80;101297.00;;;;5093484;28;19915;-68
2022/09/23 07:29:32;;;;;;;;;;;22.00;42.90;20.80;101293.00;;;;5099493;28;19916;-68
2022/09/23 07:32:18;;;;;;;;;;;22.00;42.90;20.80;101299.00;;;;5104083;28;19912;-68
2022/09/23 07:35:05;;;;;;;;;;;22.00;42.90;20.80;101296.00;;;;5103406;28;19984;-68
2022/09/23 07:37:51;;;;;;;;;;;22.00;42.90;20.80;101294.00;;;;5089496;28;19982;-68
2022/09/23 07:40:38;;;;;;;;;;;22.00;42.90;20.80;101293.00;;;;5095067;28;20392;-68
2022/09/23 07:43:26;;;;;;;;;;;21.90;42.80;20.80;101294.00;;;;5099671;28;20644;-69
2022/09/23 07:46:15;;;;;;;;;;;22.10;42.90;20.80;101294.00;;;;5094283;28;19916;-69
2022/09/23 07:49:02;;;;;;;;;;;22.10;42.90;20.80;101298.00;;;;5096672;28;20032;-68
2022/09/23 07:51:48;;;;;;;;;;;22.00;42.80;20.80;101299.00;;;;5102585;28;20265;-68
2022/09/23 07:54:34;;;;;;;;;;;22.00;42.90;20.80;101301.00;;;;5095584;28;19915;-68
2022/09/23 07:57:20;;;;;;;;;;;22.10;42.90;20.80;101292.00;;;;5097123;28;19916;-68
2022/09/23 08:00:06;;;;;;;;;;;22.10;42.90;20.80;101297.00;;;;5098193;28;19923;-68
2022/09/23 08:02:52;;;;;;;;;;;22.10;42.90;20.80;101295.00;;;;5099836;28;20288;-68
2022/09/23 08:05:38;;;;;;;;;;;22.10;42.90;20.80;101299.00;;;;5100486;28;19934;-68
2022/09/23 08:08:26;;;;;;;;;;;22.10;42.90;20.80;101293.00;;;;5097368;28;19981;-69
2022/09/23 08:11:13;;;;;;;;;;;22.10;42.90;20.90;101296.00;;;;5098820;28;20333;-68
2022/09/23 08:13:58;;;;;;;;;;;22.10;42.90;20.90;101298.00;;;;5093880;28;19918;-68
2022/09/23 08:16:46;;;;;;;;;;;22.10;42.80;20.90;101289.00;;;;5103061;28;20364;-68
2022/09/23 08:19:32;;;;;;;;;;;22.10;42.90;20.90;101298.00;;;;5099464;27;19969;-68
2022/09/23 08:22:19;;;;;;;;;;;22.10;42.80;20.90;101293.00;;;;5099192;27;19962;-68
2022/09/23 08:25:07;;;;;;;;;;;22.10;42.80;20.90;101296.00;;;;5102252;27;19918;-68
2022/09/23 08:27:53;;;;;;;;;;;22.10;42.90;20.90;101295.00;;;;5102113;27;19911;-68
2022/09/23 08:30:39;;;;;;;;;;;22.20;42.90;20.90;101291.00;;;;5109266;27;19916;-68
2022/09/23 08:33:25;;;;;;;;;;;22.10;42.80;20.90;101296.00;;;;5098950;27;20606;-68
2022/09/23 08:36:11;;;;;;;;;;;22.20;42.90;20.90;101289.00;;;;5099364;27;20003;-68
2022/09/23 08:38:57;;;;;;;;;;;22.20;42.90;20.90;101291.00;;;;5105939;27;19915;-68
2022/09/23 08:41:52;;;;;;;;;;;22.20;42.90;20.90;101298.00;;;;5105899;27;19915;-68
2022/09/23 08:44:49;;;;;;;;;;;22.20;42.90;20.90;101290.00;;;;5108732;27;20287;-68
2022/09/23 08:48:07;;;;;;;;;;;22.20;42.90;20.90;101287.00;;;;5087454;27;19915;-68
2022/09/23 08:50:57;;;;;;;;;;;22.20;42.90;20.90;101285.00;;;;5100463;27;19969;-68
2022/09/23 08:53:45;;;;;;;;;;;22.20;42.90;20.90;101291.00;;;;5093943;28;19915;-68
2022/09/23 08:56:31;;;;;;;;;;;22.20;42.90;20.90;101281.00;;;;5092987;28;19970;-68
2022/09/23 08:59:25;;;;;;;;;;;22.20;42.90;20.90;101282.00;;;;5096085;28;19919;-68
2022/09/23 09:02:18;;;;;;;;;;;22.20;42.90;20.90;101285.00;;;;5088050;28;19919;-69
2022/09/23 09:05:07;;;;;;;;;;;22.20;42.90;20.90;101281.00;;;;5084013;28;19911;-68
2022/09/23 09:07:55;;;;;;;;;;;22.20;42.90;20.90;101278.00;;;;5096718;28;19912;-68
2022/09/23 09:10:44;;;;;;;;;;;22.20;42.90;20.90;101282.00;;;;5101614;28;19924;-68
2022/09/23 09:13:32;;;;;;;;;;;22.20;42.90;20.90;101280.00;;;;5083618;28;19916;-68
2022/09/23 09:16:43;;;;;;;;;;;22.20;42.80;20.90;101279.00;;;;5092772;27;19916;-68
2022/09/23 09:19:46;;;;;;;;;;;22.20;42.90;20.90;101285.00;;;;5079451;28;19923;-68
2022/09/23 09:22:44;;;;;;;;;;;22.20;42.90;20.90;101279.00;;;;5097545;28;19919;-68
2022/09/23 09:25:53;;;;;;;;;;;22.20;42.90;20.90;101269.00;;;;5100855;27;20278;-68
2022/09/23 09:28:53;;;;;;;;;;;22.20;42.90;20.90;101274.00;;;;5080177;28;19912;-68
2022/09/23 09:31:41;;;;;;;;;;;22.20;42.90;20.90;101270.00;;;;5100789;27;20470;-68
2022/09/23 09:34:28;;;;;;;;;;;22.20;42.90;20.90;101269.00;;;;5100615;27;19915;-68
2022/09/23 09:37:20;;;;;;;;;;;22.30;42.90;20.90;101265.00;;;;5095190;27;20003;-69
2022/09/23 09:40:10;;;;;;;;;;;22.20;42.90;21.00;101261.00;;;;5087858;27;20454;-68
2022/09/23 09:42:56;;;;;;;;;;;22.20;42.90;21.00;101259.00;;;;5098148;27;19943;-68
2022/09/23 09:45:55;;;;;;;;;;;22.30;42.90;21.00;101263.00;;;;5110155;27;20416;-68
2022/09/23 09:49:02;;;;;;;;;;;22.30;42.90;21.00;101266.00;;;;5093686;28;19917;-68
2022/09/23 09:52:18;;;;;;;;;;;22.30;43.00;21.00;101258.00;;;;5082065;28;19927;-68
2022/09/23 09:55:13;;;;;;;;;;;22.30;42.90;21.00;101250.00;;;;5099563;27;19915;-68
2022/09/23 09:58:04;;;;;;;;;;;22.30;42.90;21.00;101264.00;;;;5097696;28;19965;-68
2022/09/23 10:00:51;;;;;;;;;;;22.30;42.90;21.00;101257.00;;;;5089274;28;19916;-68
2022/09/23 10:03:41;;;;;;;;;;;22.30;42.90;21.00;101250.00;;;;5097860;28;19989;-68
2022/09/23 10:06:31;;;;;;;;;;;22.30;42.90;21.00;101252.00;;;;5070358;28;19955;-68
2022/09/23 10:09:18;;;;;;;;;;;22.30;42.90;21.00;101243.00;;;;5086449;28;19981;-69
2022/09/23 10:12:18;;;;;;;;;;;22.30;42.90;21.00;101251.00;;;;5098138;28;19915;-68
2022/09/23 10:15:10;;;;;;;;;;;22.30;42.90;21.00;101254.00;;;;5093587;28;19922;-70
2022/09/23 10:18:00;;;;;;;;;;;22.30;43.60;21.00;101239.00;;;;5107972;27;19920;-69
2022/09/23 10:20:46;;;;;;;;;;;22.30;42.90;21.00;101241.00;;;;5110389;27;19965;-69
2022/09/23 10:23:33;;;;;;;;;;;22.30;42.90;21.00;101239.00;;;;5083888;28;20305;-69
2022/09/23 10:26:31;;;;;;;;;;;22.30;42.90;21.00;101236.00;;;;5095987;28;19916;-72
2022/09/23 10:29:31;;;;;;;;;;;22.30;42.90;21.00;101234.00;;;;5092421;27;20463;-69
2022/09/23 10:32:19;;;;;;;;;;;22.30;42.90;21.00;101225.00;;;;5094961;28;20352;-70
2022/09/23 10:35:08;;;;;;;;;;;22.30;42.90;21.00;101228.00;;;;5082709;28;19998;-70
2022/09/23 10:37:55;;;;;;;;;;;22.30;42.90;21.00;101227.00;;;;5089551;27;19944;-70
2022/09/23 10:47:40;;;;;;;;;;;22.30;42.90;21.00;101223.00;;;;5101963;27;19965;-70
2022/09/23 10:50:47;;;;;;;;;;;22.30;42.90;21.00;101220.00;;;;5076176;28;20019;-70
2022/09/23 10:53:48;;;;;;;;;;;22.30;42.90;21.00;101221.00;;;;5102677;27;19971;-70
2022/09/23 10:56:44;;;;;;;;;;;22.30;43.00;21.00;101215.00;;;;5070124;28;19912;-70
2022/09/23 10:59:34;;;;;;;;;;;22.30;42.90;21.00;101215.00;;;;5091471;28;19923;-70
2022/09/23 11:02:36;;;;;;;;;;;22.40;43.00;21.00;101209.00;;;;5084516;28;19916;-70
2022/09/23 11:05:40;;;;;;;;;;;22.30;43.00;21.00;101218.00;;;;5104348;28;20357;-70
2022/09/23 11:08:51;;;;;;;;;;;22.40;43.00;21.00;101216.00;;;;5095136;28;19916;-69
2022/09/23 11:11:51;;;;;;;;;;;22.40;43.00;21.00;101213.00;;;;5097646;28;19915;-69
2022/09/23 11:14:58;;;;;;;;;;;22.40;43.00;21.10;101210.00;;;;5080868;28;20355;-69
2022/09/23 11:18:29;;;;;;;;;;;22.40;43.00;21.10;101202.00;;;;5091891;28;19919;-70
2022/09/23 11:21:37;;;;;;;;;;;22.40;43.00;21.10;101203.00;;;;5073757;28;19957;-72
2022/09/23 11:24:38;;;;;;;;;;;22.40;43.00;21.10;101207.00;;;;5106995;28;19999;-70
2022/09/23 11:27:56;;;;;;;;;;;22.40;43.00;21.10;101195.00;;;;5103439;28;20060;-70
2022/09/23 11:31:00;;;;;;;;;;;22.40;43.00;21.10;101188.00;;;;5096744;28;19916;-70
2022/09/23 11:33:46;;;;;;;;;;;22.40;43.00;21.10;101193.00;;;;5096917;28;19912;-70
2022/09/23 11:36:38;;;;;;;;;;;22.40;43.00;21.10;101191.00;;;;5098384;28;19998;-70
2022/09/23 11:39:28;;;;;;;;;;;22.40;43.00;21.10;101189.00;;;;5085586;28;19915;-70
2022/09/23 11:42:26;;;;;;;;;;;22.40;43.00;21.10;101196.00;;;;5092462;28;19919;-70
2022/09/23 11:45:17;;;;;;;;;;;22.40;43.10;21.10;101186.00;;;;5085173;28;19923;-70
2022/09/23 11:48:08;;;;;;;;;;;22.40;43.00;21.10;101189.00;;;;5090212;28;20211;-70
2022/09/23 11:51:03;;;;;;;;;;;22.40;43.00;21.10;101176.00;;;;5095044;27;19916;-70
2022/09/23 11:54:20;;;;;;;;;;;22.40;43.00;21.10;101178.00;;;;5089270;28;20032;-70
2022/09/23 11:57:10;;;;;;;;;;;22.40;43.00;21.10;101176.00;;;;5103875;28;19911;-75
2022/09/23 12:00:02;;;;;;;;;;;22.40;43.00;21.10;101175.00;;;;5087793;28;19919;-70
2022/09/23 12:03:04;;;;;;;;;;;22.40;43.00;21.10;101176.00;;;;5092455;28;19911;-70
2022/09/23 12:05:58;;;;;;;;;;;22.40;43.00;21.10;101169.00;;;;5105742;28;19915;-70
2022/09/23 12:08:44;;;;;;;;;;;22.40;43.00;21.10;101172.00;;;;5097902;28;19912;-70
2022/09/23 12:11:55;;;;;;;;;;;22.40;43.00;21.10;101164.00;;;;5099847;28;19923;-70
2022/09/23 12:14:53;;;;;;;;;;;22.40;43.00;21.10;101174.00;;;;5097516;28;19962;-70
2022/09/23 12:17:53;;;;;;;;;;;22.40;43.00;21.10;101169.00;;;;5097877;28;19954;-70
2022/09/23 12:20:41;;;;;;;;;;;22.40;43.00;21.10;101179.00;;;;5101460;28;19922;-70
2022/09/23 12:23:47;;;;;;;;;;;22.50;43.10;21.10;101169.00;;;;5093247;28;19966;-70
2022/09/23 12:26:33;;;;;;;;;;;22.40;43.00;21.10;101158.00;;;;5090696;27;19960;-70
2022/09/23 12:29:19;;;;;;;;;;;22.50;43.10;21.10;101161.00;;;;5082683;28;19920;-69
2022/09/23 12:32:08;;;;;;;;;;;22.40;43.00;21.20;101154.00;;;;5079774;28;19912;-69
2022/09/23 12:34:54;;;;;;;;;;;22.50;43.10;21.10;101147.00;;;;5100853;27;19911;-70
2022/09/23 12:37:41;;;;;;;;;;;22.50;43.10;21.20;101151.00;;;;5102139;27;19923;-69
2022/09/23 12:40:32;;;;;;;;;;;22.50;43.10;21.20;101145.00;;;;5103843;27;20350;-69
2022/09/23 12:43:28;;;;;;;;;;;22.50;43.10;21.20;101141.00;;;;5094019;27;19911;-70
2022/09/23 12:46:18;;;;;;;;;;;22.50;43.10;21.20;101146.00;;;;5082759;28;19916;-70
2022/09/23 12:49:07;;;;;;;;;;;22.50;43.10;21.20;101135.00;;;;5102203;27;19915;-69
2022/09/23 12:52:16;;;;;;;;;;;22.50;43.10;21.20;101136.00;;;;5100947;27;19919;-69
2022/09/23 12:55:20;;;;;;;;;;;22.50;43.10;21.20;101135.00;;;;5094421;28;20354;-69
2022/09/23 12:58:56;;;;;;;;;;;22.50;43.10;21.20;101134.00;;;;5101703;28;20371;-69
2022/09/23 13:01:41;;;;;;;;;;;22.50;43.10;21.20;101130.00;;;;5088361;28;19911;-69
2022/09/23 13:07:46;;;;;;;;;;;22.50;43.10;21.20;101126.00;;;;5104435;27;19958;-69
2022/09/23 13:10:43;;;;;;;;;;;22.50;43.20;21.20;101133.00;;;;5100605;28;19980;-69
2022/09/23 13:13:35;;;;;;;;;;;22.50;43.10;21.20;101126.00;;;;5081474;28;19916;-69
2022/09/23 13:16:28;;;;;;;;;;;22.50;43.10;21.20;101125.00;;;;5087133;27;20620;-69
2022/09/23 13:19:30;;;;;;;;;;;22.50;43.20;21.20;101121.00;;;;5097543;28;19920;-69
2022/09/23 13:22:40;;;;;;;;;;;22.50;43.10;21.20;101120.00;;;;5102528;27;20003;-69
2022/09/23 13:25:27;;;;;;;;;;;22.50;43.10;21.20;101118.00;;;;5102942;27;19965;-69
2022/09/23 13:28:30;;;;;;;;;;;22.50;43.20;21.20;101114.00;;;;5098766;27;20318;-70
2022/09/23 13:31:16;;;;;;;;;;;22.50;43.10;21.20;101112.00;;;;5081794;28;20303;-70
2022/09/23 13:34:04;;;;;;;;;;;22.50;43.10;21.20;101107.00;;;;5114920;27;20386;-70
2022/09/23 13:36:50;;;;;;;;;;;22.50;43.10;21.20;101106.00;;;;5098688;28;20410;-70
2022/09/23 13:39:36;;;;;;;;;;;22.50;43.10;21.20;101112.00;;;;5105526;27;20352;-73
2022/09/23 13:42:26;;;;;;;;;;;22.50;43.10;21.20;101100.00;;;;5102339;27;20341;-70
2022/09/23 13:45:17;;;;;;;;;;;22.50;43.10;21.20;101092.00;;;;5080615;27;20377;-70
2022/09/23 13:48:04;;;;;;;;;;;22.50;43.10;21.20;101095.00;;;;5107000;27;20751;-69
2022/09/23 13:50:52;;;;;;;;;;;22.50;43.10;21.20;101084.00;;;;5109707;27;19915;-69
2022/09/23 13:53:38;;;;;;;;;;;22.50;43.10;21.20;101090.00;;;;5097665;28;19915;-69
2022/09/23 13:56:26;;;;;;;;;;;22.50;43.10;21.20;101092.00;;;;5097555;27;19920;-69
2022/09/23 13:59:26;;;;;;;;;;;22.60;43.20;21.20;101083.00;;;;5100360;27;19915;-69